Time;durP1;ratioP1;P1;durP2;ratioP2;P2;SDS_P1;SDS_P2;PMS_P1;PMS_P2;Temp;Humidity;BMP_temperature;BMP_pressure;BME280_temperature;BME280_humidity;BME280_pressure;Samples;Min_cycle;Max_cycle;Signal;HPM_P1;HPM_P2
2021/09/01 00:02:12;;;;;;;9.57;7.87;;;11.40;99.90;;;;;;4970553;28;20232;-53
2021/09/01 00:04:38;;;;;;;9.70;7.87;;;11.30;99.90;;;;;;4971212;28;20196;-56
2021/09/01 00:07:04;;;;;;;10.80;9.20;;;11.30;99.90;;;;;;4971327;28;20765;-53
2021/09/01 00:09:29;;;;;;;12.20;9.43;;;11.30;99.90;;;;;;4958831;28;20180;-52
2021/09/01 00:11:57;;;;;;;9.50;8.53;;;11.20;99.90;;;;;;4970649;28;20482;-52
2021/09/01 00:14:23;;;;;;;11.33;9.00;;;11.20;99.90;;;;;;4970498;28;20745;-52
2021/09/01 00:16:48;;;;;;;10.53;8.93;;;11.20;99.90;;;;;;4970628;28;20559;-55
2021/09/01 00:19:14;;;;;;;11.60;9.37;;;11.10;99.90;;;;;;4965145;28;20456;-52
2021/09/01 00:21:40;;;;;;;11.27;8.83;;;11.20;99.90;;;;;;4967956;28;20185;-53
2021/09/01 00:24:06;;;;;;;9.30;8.30;;;11.20;99.90;;;;;;4970868;28;20940;-53
2021/09/01 00:26:33;;;;;;;11.47;8.70;;;11.10;99.90;;;;;;4970048;28;20177;-54
2021/09/01 00:28:59;;;;;;;11.80;8.97;;;11.10;99.90;;;;;;4970515;28;20447;-52
2021/09/01 00:31:25;;;;;;;10.67;8.80;;;11.10;99.90;;;;;;4971031;28;20503;-55
2021/09/01 00:33:51;;;;;;;10.10;8.37;;;11.00;99.90;;;;;;4971071;28;20421;-49
2021/09/01 00:36:17;;;;;;;11.90;8.87;;;11.00;99.90;;;;;;4959031;28;21336;-49
2021/09/01 00:38:44;;;;;;;9.67;8.40;;;11.00;99.90;;;;;;4969955;28;20188;-54
2021/09/01 00:41:20;;;;;;;11.00;8.57;;;11.00;99.90;;;;;;4970722;28;20416;-53
2021/09/01 00:43:49;;;;;;;9.87;8.80;;;11.00;99.90;;;;;;4969066;28;20423;-49
2021/09/01 00:46:16;;;;;;;11.97;10.30;;;11.00;99.90;;;;;;4970429;28;21079;-51
2021/09/01 00:48:42;;;;;;;9.00;8.10;;;10.90;99.90;;;;;;4969659;28;20416;-51
2021/09/01 00:51:08;;;;;;;10.93;9.23;;;10.90;99.90;;;;;;4970172;28;20455;-53
2021/09/01 00:53:34;;;;;;;12.57;10.23;;;10.90;99.90;;;;;;4969292;28;20951;-53
2021/09/01 00:56:01;;;;;;;14.90;8.93;;;10.90;99.90;;;;;;4968441;28;20213;-48
2021/09/01 00:58:28;;;;;;;11.10;9.60;;;10.90;99.90;;;;;;4966159;28;20433;-49
2021/09/01 01:01:08;;;;;;;11.30;9.20;;;10.90;99.90;;;;;;4969072;28;20465;-51
2021/09/01 01:03:33;;;;;;;10.33;9.03;;;10.90;99.90;;;;;;4969994;28;20801;-49
2021/09/01 01:05:59;;;;;;;12.10;9.90;;;10.90;99.90;;;;;;4970357;28;20428;-51
2021/09/01 01:08:29;;;;;;;11.33;9.80;;;10.90;99.90;;;;;;4968554;28;20674;-54
2021/09/01 01:10:55;;;;;;;12.60;9.73;;;10.90;99.90;;;;;;4970369;28;20416;-53
2021/09/01 01:13:21;;;;;;;11.60;9.70;;;10.90;99.90;;;;;;4969397;28;20825;-49
2021/09/01 01:15:46;;;;;;;12.77;10.03;;;10.90;99.90;;;;;;4969764;28;20471;-52
2021/09/01 01:18:12;;;;;;;10.83;8.80;;;10.80;99.90;;;;;;4964627;28;20193;-53
2021/09/01 01:20:39;;;;;;;11.27;9.77;;;10.80;99.90;;;;;;4965511;28;20193;-54
2021/09/01 01:23:06;;;;;;;10.40;9.30;;;10.80;99.90;;;;;;4970192;28;20424;-50
2021/09/01 01:25:39;;;;;;;11.10;9.50;;;10.80;99.90;;;;;;4966718;28;20778;-52
2021/09/01 01:28:06;;;;;;;11.53;9.17;;;10.70;99.90;;;;;;4966227;28;20454;-50
2021/09/01 01:30:31;;;;;;;10.77;9.10;;;10.70;99.90;;;;;;4970190;28;20424;-52
2021/09/01 01:32:57;;;;;;;9.20;8.17;;;10.70;99.90;;;;;;4969542;28;20467;-51
2021/09/01 01:35:27;;;;;;;9.63;8.63;;;10.60;99.90;;;;;;4969898;28;20217;-52
2021/09/01 01:37:54;;;;;;;11.90;9.17;;;10.60;99.90;;;;;;4960238;28;20182;-49
2021/09/01 01:40:20;;;;;;;10.90;9.80;;;10.60;99.90;;;;;;4966777;28;20431;-51
2021/09/01 01:42:47;;;;;;;11.83;9.47;;;10.60;99.90;;;;;;4969436;28;20936;-47
2021/09/01 01:45:12;;;;;;;15.70;10.23;;;10.60;99.90;;;;;;4966239;28;20872;-51
2021/09/01 01:47:38;;;;;;;11.50;9.47;;;10.50;99.90;;;;;;4959834;28;20434;-52
2021/09/01 01:50:05;;;;;;;13.40;9.70;;;10.50;99.90;;;;;;4968298;28;20185;-53
2021/09/01 01:52:31;;;;;;;9.87;8.97;;;10.50;99.90;;;;;;4969835;28;20220;-49
2021/09/01 01:54:56;;;;;;;10.27;8.40;;;10.50;99.90;;;;;;4969769;28;20471;-49
2021/09/01 01:57:22;;;;;;;11.70;9.33;;;10.50;99.90;;;;;;4969652;28;20235;-51
2021/09/01 01:59:47;;;;;;;11.37;8.73;;;10.40;99.90;;;;;;4969576;28;20680;-51
2021/09/01 02:02:13;;;;;;;11.23;9.23;;;10.40;99.90;;;;;;4972225;28;20212;-49
2021/09/01 02:04:38;;;;;;;11.80;8.83;;;10.40;99.90;;;;;;4972612;28;20239;-47
2021/09/01 02:07:04;;;;;;;10.03;8.93;;;10.40;99.90;;;;;;4973624;28;20185;-49
2021/09/01 02:09:29;;;;;;;10.83;9.73;;;10.40;99.90;;;;;;4971885;28;20263;-49
2021/09/01 02:11:55;;;;;;;10.50;8.70;;;10.40;99.90;;;;;;4972811;28;20714;-52
2021/09/01 02:14:21;;;;;;;10.33;9.30;;;10.40;99.90;;;;;;4973507;28;20188;-52
2021/09/01 02:16:46;;;;;;;11.80;9.20;;;10.30;99.90;;;;;;4962319;28;20201;-48
2021/09/01 02:19:12;;;;;;;10.23;8.43;;;10.30;99.90;;;;;;4973138;28;20185;-52
2021/09/01 02:21:39;;;;;;;9.80;8.07;;;10.30;99.90;;;;;;4972915;28;20193;-48
2021/09/01 02:24:06;;;;;;;10.87;9.30;;;10.30;99.90;;;;;;4970421;28;20460;-52
2021/09/01 02:26:31;;;;;;;9.63;8.23;;;10.30;99.90;;;;;;4973298;28;21062;-51
2021/09/01 02:28:57;;;;;;;11.13;9.37;;;10.30;99.90;;;;;;4972776;28;20433;-46
2021/09/01 02:31:23;;;;;;;10.93;8.30;;;10.30;99.90;;;;;;4972847;28;20185;-53
2021/09/01 02:33:48;;;;;;;11.33;9.20;;;10.30;99.90;;;;;;4969528;28;20271;-51
2021/09/01 02:36:14;;;;;;;9.87;8.50;;;10.20;99.90;;;;;;4972869;28;20740;-52
2021/09/01 02:38:43;;;;;;;9.93;8.73;;;10.20;99.90;;;;;;4972677;28;20189;-46
2021/09/01 02:41:09;;;;;;;9.30;8.33;;;10.20;99.90;;;;;;4964395;28;20173;-52
2021/09/01 02:43:34;;;;;;;10.80;8.90;;;10.20;99.90;;;;;;4972144;28;20479;-49
2021/09/01 02:46:00;;;;;;;11.63;9.40;;;10.20;99.90;;;;;;4972698;28;20212;-50
2021/09/01 02:48:25;;;;;;;11.77;9.63;;;10.20;99.90;;;;;;4972104;28;20265;-49
2021/09/01 02:50:52;;;;;;;12.10;10.43;;;10.20;99.90;;;;;;4972301;28;20192;-49
2021/09/01 02:53:18;;;;;;;12.70;9.97;;;10.20;99.90;;;;;;4972637;28;20185;-50
2021/09/01 02:55:44;;;;;;;11.33;9.87;;;10.20;99.90;;;;;;4962777;28;20511;-48
2021/09/01 02:58:10;;;;;;;10.57;9.47;;;10.20;99.90;;;;;;4969011;28;20709;-45
2021/09/01 03:00:36;;;;;;;10.63;9.53;;;10.20;99.90;;;;;;4972123;28;20227;-48
2021/09/01 03:03:02;;;;;;;13.40;9.20;;;10.20;99.90;;;;;;4971101;28;20185;-52
2021/09/01 03:05:27;;;;;;;12.23;9.53;;;10.10;99.90;;;;;;4972778;28;20471;-51
2021/09/01 03:07:53;;;;;;;12.30;8.90;;;10.10;99.90;;;;;;4971174;28;20240;-51
2021/09/01 03:10:19;;;;;;;11.30;9.47;;;10.10;99.90;;;;;;4971874;28;20243;-52
2021/09/01 03:12:44;;;;;;;11.43;10.00;;;10.10;99.90;;;;;;4968252;28;20184;-53
2021/09/01 03:15:10;;;;;;;11.13;9.40;;;10.10;99.90;;;;;;4968894;28;20260;-55
2021/09/01 03:17:36;;;;;;;13.47;10.50;;;10.10;99.90;;;;;;4971720;28;20173;-53
2021/09/01 03:20:02;;;;;;;12.40;9.40;;;10.10;99.90;;;;;;4971231;28;20448;-48
2021/09/01 03:22:27;;;;;;;11.27;10.07;;;10.10;99.90;;;;;;4971732;28;20184;-48
2021/09/01 03:24:53;;;;;;;13.07;9.43;;;10.10;99.90;;;;;;4970712;28;21860;-54
2021/09/01 03:27:18;;;;;;;11.83;10.20;;;10.10;99.90;;;;;;4972090;28;20656;-51
2021/09/01 03:29:44;;;;;;;11.77;10.40;;;10.10;99.90;;;;;;4970973;28;20189;-53
2021/09/01 03:32:09;;;;;;;10.13;9.10;;;10.00;99.90;;;;;;4971461;28;20189;-50
2021/09/01 03:34:35;;;;;;;10.90;9.57;;;10.00;99.90;;;;;;4971038;28;20188;-51
2021/09/01 03:37:00;;;;;;;10.73;9.63;;;9.90;99.90;;;;;;4970675;28;20182;-50
2021/09/01 03:39:26;;;;;;;10.23;8.90;;;9.90;99.90;;;;;;4971753;28;20192;-52
2021/09/01 03:41:52;;;;;;;11.60;9.73;;;9.90;99.90;;;;;;4970154;28;20247;-51
2021/09/01 03:44:17;;;;;;;12.20;9.63;;;9.90;99.90;;;;;;4971472;28;20193;-49
2021/09/01 03:46:43;;;;;;;13.83;9.57;;;9.90;99.90;;;;;;4971689;28;20181;-50
2021/09/01 03:49:08;;;;;;;11.90;10.00;;;9.90;99.90;;;;;;4969722;28;20185;-50
2021/09/01 03:51:34;;;;;;;11.80;9.90;;;9.80;99.90;;;;;;4971090;28;20632;-50
2021/09/01 03:53:59;;;;;;;12.50;10.80;;;9.80;99.90;;;;;;4969191;28;20644;-49
2021/09/01 03:56:25;;;;;;;12.63;10.03;;;9.90;99.90;;;;;;4971090;28;20240;-51
2021/09/01 03:58:50;;;;;;;11.47;10.27;;;10.00;99.90;;;;;;4970559;28;20185;-50
2021/09/01 04:01:16;;;;;;;12.00;10.30;;;9.90;99.90;;;;;;4969494;28;20255;-47
2021/09/01 04:03:41;;;;;;;12.30;9.53;;;9.90;99.90;;;;;;4970886;28;20180;-49
2021/09/01 04:06:08;;;;;;;10.90;8.70;;;9.90;99.90;;;;;;4970352;28;20250;-51
2021/09/01 04:08:33;;;;;;;12.03;10.73;;;9.90;99.90;;;;;;4965808;28;20440;-49
2021/09/01 04:10:59;;;;;;;12.17;10.27;;;9.80;99.90;;;;;;4970970;28;20197;-52
2021/09/01 04:13:24;;;;;;;11.50;10.30;;;9.80;99.90;;;;;;4971453;28;20928;-50
2021/09/01 04:15:50;;;;;;;10.90;9.80;;;9.80;99.90;;;;;;4970005;28;20602;-50
2021/09/01 04:18:15;;;;;;;14.27;11.50;;;9.80;99.90;;;;;;4969953;28;20197;-53
2021/09/01 04:20:41;;;;;;;12.30;10.00;;;9.70;99.90;;;;;;4960881;28;20194;-54
2021/09/01 04:23:06;;;;;;;13.67;10.90;;;9.70;99.90;;;;;;4961689;28;20200;-52
2021/09/01 04:25:32;;;;;;;13.47;10.83;;;9.70;99.90;;;;;;4961007;28;20551;-53
2021/09/01 04:27:57;;;;;;;13.10;10.70;;;9.70;99.90;;;;;;4962333;28;20201;-51
2021/09/01 04:30:23;;;;;;;14.23;10.70;;;9.70;99.90;;;;;;4961916;28;20192;-54
2021/09/01 04:32:48;;;;;;;14.60;11.17;;;9.70;99.90;;;;;;4962147;28;20192;-50
2021/09/01 04:35:14;;;;;;;13.90;11.40;;;9.70;99.90;;;;;;4961012;28;20217;-52
2021/09/01 04:37:39;;;;;;;12.10;10.20;;;9.70;99.90;;;;;;4963998;28;20193;-49
2021/09/01 04:40:06;;;;;;;14.63;10.80;;;9.70;99.90;;;;;;4970223;28;20189;-49
2021/09/01 04:42:31;;;;;;;12.03;10.10;;;9.70;99.90;;;;;;4970296;28;20576;-52
2021/09/01 04:44:57;;;;;;;12.57;10.50;;;9.70;99.90;;;;;;4968886;28;20526;-51
2021/09/01 04:47:22;;;;;;;12.10;10.77;;;9.70;99.90;;;;;;4970731;28;20197;-49
2021/09/01 04:49:48;;;;;;;12.30;10.73;;;9.70;99.90;;;;;;4962860;28;20540;-51
2021/09/01 04:52:13;;;;;;;12.20;10.90;;;9.70;99.90;;;;;;4985067;28;20670;-48
2021/09/01 04:54:39;;;;;;;14.60;12.33;;;9.70;99.90;;;;;;4970070;28;20192;-47
2021/09/01 04:57:04;;;;;;;13.53;11.40;;;9.70;99.90;;;;;;4969872;28;20244;-53
2021/09/01 04:59:30;;;;;;;14.97;10.97;;;9.80;99.90;;;;;;4970014;28;20315;-48
2021/09/01 05:01:55;;;;;;;12.73;11.13;;;9.80;99.90;;;;;;4969381;28;20275;-50
2021/09/01 05:04:21;;;;;;;16.37;12.23;;;9.90;99.90;;;;;;4969688;28;20648;-48
2021/09/01 05:06:47;;;;;;;12.50;11.30;;;9.90;99.90;;;;;;4968849;28;20224;-53
2021/09/01 05:09:12;;;;;;;14.57;11.20;;;9.90;99.90;;;;;;4970420;28;20514;-53
2021/09/01 05:11:38;;;;;;;14.60;12.53;;;9.90;99.90;;;;;;4969806;28;20220;-52
2021/09/01 05:14:03;;;;;;;13.70;11.70;;;9.90;99.90;;;;;;4969617;28;20675;-53
2021/09/01 05:16:29;;;;;;;12.77;11.17;;;10.00;99.90;;;;;;4968351;28;20213;-48
2021/09/01 05:18:54;;;;;;;13.03;10.83;;;10.00;99.90;;;;;;4969617;28;20200;-53
2021/09/01 05:21:25;;;;;;;14.53;11.47;;;10.10;99.90;;;;;;4968236;28;21012;-50
2021/09/01 05:23:54;;;;;;;13.27;11.03;;;10.10;99.90;;;;;;4970105;28;20319;-49
2021/09/01 05:26:21;;;;;;;14.10;11.27;;;10.10;99.90;;;;;;4984749;28;21076;-55
2021/09/01 05:28:48;;;;;;;14.20;12.00;;;10.10;99.90;;;;;;4969432;28;20440;-48
2021/09/01 05:31:15;;;;;;;14.53;11.63;;;10.20;99.90;;;;;;4969163;28;20452;-48
2021/09/01 05:33:49;;;;;;;15.00;12.37;;;10.20;99.90;;;;;;4972376;28;20443;-53
2021/09/01 05:36:16;;;;;;;13.57;10.20;;;10.30;99.90;;;;;;4972024;28;20521;-49
2021/09/01 05:38:44;;;;;;;14.23;11.63;;;10.40;99.90;;;;;;4973851;28;20508;-50
2021/09/01 05:41:11;;;;;;;13.17;10.63;;;10.40;99.90;;;;;;4974219;28;20832;-54
2021/09/01 05:43:38;;;;;;;12.27;10.97;;;10.50;99.90;;;;;;4962511;28;20441;-55
2021/09/01 05:46:03;;;;;;;13.27;10.90;;;10.60;99.90;;;;;;4972169;28;20514;-51
2021/09/01 05:48:30;;;;;;;14.33;11.70;;;10.60;99.90;;;;;;4971351;28;20608;-51
2021/09/01 05:50:56;;;;;;;13.77;10.93;;;10.80;99.90;;;;;;4973399;28;20208;-48
2021/09/01 05:53:22;;;;;;;14.53;12.17;;;10.80;99.90;;;;;;4973788;28;20424;-52
2021/09/01 05:55:52;;;;;;;12.37;11.03;;;10.90;99.90;;;;;;4973430;28;21278;-48
2021/09/01 05:58:20;;;;;;;14.50;11.33;;;11.00;99.90;;;;;;4973037;28;20432;-53
2021/09/01 06:00:53;;;;;;;15.03;11.47;;;11.10;99.90;;;;;;4973036;28;20475;-52
2021/09/01 06:03:25;;;;;;;12.67;10.97;;;11.30;99.90;;;;;;4969259;28;20432;-53
2021/09/01 06:05:55;;;;;;;13.30;10.83;;;11.40;99.90;;;;;;4973788;28;20973;-53
2021/09/01 06:08:24;;;;;;;15.77;12.67;;;11.50;99.90;;;;;;4972739;28;20907;-49
2021/09/01 06:10:54;;;;;;;13.37;11.27;;;11.70;99.90;;;;;;4973247;28;20455;-53
2021/09/01 06:13:19;;;;;;;14.40;12.67;;;11.80;99.90;;;;;;4962585;28;20539;-48
2021/09/01 06:15:45;;;;;;;14.50;12.43;;;11.90;99.90;;;;;;4969589;28;20670;-54
2021/09/01 06:18:11;;;;;;;15.87;13.17;;;12.00;99.90;;;;;;4972059;28;20200;-52
2021/09/01 06:20:38;;;;;;;16.77;13.63;;;12.10;99.90;;;;;;4973363;28;20216;-52
2021/09/01 06:23:04;;;;;;;18.20;13.67;;;12.20;99.90;;;;;;4972887;28;20185;-55
2021/09/01 06:25:30;;;;;;;17.67;13.80;;;12.30;99.90;;;;;;4971599;28;20448;-53
2021/09/01 06:27:56;;;;;;;16.43;13.87;;;12.40;99.90;;;;;;4972483;28;20448;-54
2021/09/01 06:30:22;;;;;;;18.07;14.40;;;12.60;99.90;;;;;;4970644;28;20974;-53
2021/09/01 06:32:48;;;;;;;15.93;13.37;;;12.70;99.90;;;;;;4965445;28;20448;-50
2021/09/01 06:35:14;;;;;;;16.03;13.03;;;12.90;99.90;;;;;;4972592;28;20981;-55
2021/09/01 06:37:40;;;;;;;15.20;12.83;;;13.00;99.90;;;;;;4972595;28;20432;-54
2021/09/01 06:40:07;;;;;;;16.07;13.43;;;13.20;99.90;;;;;;4973025;28;21157;-50
2021/09/01 06:42:33;;;;;;;16.33;12.40;;;13.30;99.90;;;;;;4972553;28;20491;-51
2021/09/01 06:44:58;;;;;;;14.20;12.27;;;13.40;99.90;;;;;;4971912;28;20455;-53
2021/09/01 06:47:24;;;;;;;13.00;11.60;;;13.60;99.90;;;;;;4971919;28;20938;-51
2021/09/01 06:49:50;;;;;;;14.77;12.50;;;13.70;99.90;;;;;;4970219;28;20985;-49
2021/09/01 06:52:16;;;;;;;15.50;11.90;;;13.80;99.90;;;;;;4972419;28;20192;-53
2021/09/01 06:54:41;;;;;;;12.87;11.17;;;13.90;99.90;;;;;;4972633;28;20196;-54
2021/09/01 06:57:07;;;;;;;13.47;11.63;;;14.10;99.90;;;;;;4972586;28;20652;-55
2021/09/01 06:59:32;;;;;;;13.23;11.47;;;14.30;99.90;;;;;;4972002;28;20240;-53
2021/09/01 07:01:58;;;;;;;12.47;11.17;;;14.40;99.90;;;;;;4972404;28;20225;-56
2021/09/01 07:04:23;;;;;;;11.30;10.20;;;14.70;99.90;;;;;;4971393;28;20189;-51
2021/09/01 07:06:49;;;;;;;11.33;9.77;;;14.90;99.90;;;;;;4972363;28;20201;-50
2021/09/01 07:09:14;;;;;;;14.13;11.10;;;15.20;99.90;;;;;;4969739;28;20185;-53
2021/09/01 07:11:40;;;;;;;11.60;10.50;;;15.40;99.90;;;;;;4969067;28;20736;-53
2021/09/01 07:14:06;;;;;;;10.47;9.37;;;15.60;99.90;;;;;;4963023;28;20775;-55
2021/09/01 07:16:32;;;;;;;13.00;10.00;;;15.80;99.90;;;;;;4964410;28;20768;-55
2021/09/01 07:18:58;;;;;;;10.87;9.77;;;16.00;99.90;;;;;;4968531;28;20418;-54
2021/09/01 07:21:24;;;;;;;12.30;10.10;;;16.20;99.90;;;;;;4972032;28;21061;-54
2021/09/01 07:23:49;;;;;;;10.80;9.60;;;16.40;99.90;;;;;;4971981;28;20225;-54
2021/09/01 07:26:15;;;;;;;9.30;8.27;;;16.60;99.90;;;;;;4970833;28;20197;-54
2021/09/01 07:28:41;;;;;;;11.83;9.20;;;16.80;99.90;;;;;;4970883;28;20638;-55
2021/09/01 07:31:08;;;;;;;11.93;10.67;;;17.10;99.90;;;;;;4971070;28;20558;-52
2021/09/01 07:33:34;;;;;;;11.83;10.73;;;17.20;99.90;;;;;;4971325;28;20192;-55
2021/09/01 07:36:00;;;;;;;10.80;9.47;;;17.40;99.90;;;;;;4969823;28;20848;-54
2021/09/01 07:38:25;;;;;;;12.07;10.97;;;17.50;99.90;;;;;;4971612;28;20438;-52
2021/09/01 07:40:52;;;;;;;11.33;10.13;;;17.60;99.90;;;;;;4970278;28;20444;-55
2021/09/01 07:43:18;;;;;;;11.40;9.13;;;17.60;99.90;;;;;;4971015;28;20264;-53
2021/09/01 07:45:45;;;;;;;11.40;10.00;;;17.70;99.90;;;;;;4965647;28;20449;-53
2021/09/01 07:48:14;;;;;;;12.50;11.20;;;17.70;99.90;;;;;;4962811;28;20479;-54
2021/09/01 07:50:40;;;;;;;11.00;9.90;;;17.60;99.90;;;;;;4970919;28;21072;-53
2021/09/01 07:53:05;;;;;;;10.70;9.60;;;17.50;99.90;;;;;;4970559;28;20448;-50
2021/09/01 07:55:31;;;;;;;14.23;11.07;;;17.30;99.90;;;;;;4967209;28;20215;-53
2021/09/01 07:57:56;;;;;;;12.80;11.50;;;17.20;99.90;;;;;;4971135;28;20177;-53
2021/09/01 08:00:22;;;;;;;13.30;11.90;;;17.10;99.90;;;;;;4969241;28;20316;-51
2021/09/01 08:02:49;;;;;;;12.50;11.27;;;17.00;99.90;;;;;;4971038;28;20224;-52
2021/09/01 08:05:15;;;;;;;12.43;11.17;;;16.90;99.90;;;;;;4970472;28;20181;-53
2021/09/01 08:07:41;;;;;;;13.77;10.70;;;17.00;99.90;;;;;;4964610;28;20447;-51
2021/09/01 08:10:07;;;;;;;12.70;11.40;;;17.10;99.90;;;;;;4971237;28;21219;-54
2021/09/01 08:12:33;;;;;;;14.00;10.93;;;17.10;99.90;;;;;;4971177;28;20198;-55
2021/09/01 08:14:58;;;;;;;11.63;10.43;;;17.20;99.90;;;;;;4970000;28;20503;-54
2021/09/01 08:17:24;;;;;;;12.80;11.50;;;17.20;99.90;;;;;;4970245;28;20208;-52
2021/09/01 08:19:49;;;;;;;12.40;11.00;;;17.20;99.90;;;;;;4969027;28;20190;-51
2021/09/01 08:22:15;;;;;;;13.47;11.57;;;17.40;99.90;;;;;;4985535;28;20208;-53
2021/09/01 08:24:41;;;;;;;12.40;11.00;;;17.50;99.90;;;;;;4969432;28;20241;-49
2021/09/01 08:27:08;;;;;;;11.70;10.50;;;17.60;99.90;;;;;;4969720;28;20190;-53
2021/09/01 08:29:34;;;;;;;12.67;10.00;;;17.70;99.90;;;;;;4968959;28;20201;-49
2021/09/01 08:32:00;;;;;;;12.07;10.77;;;17.60;99.90;;;;;;4969490;28;20476;-54
2021/09/01 08:34:27;;;;;;;11.23;10.00;;;17.70;99.90;;;;;;4967921;28;20476;-50
2021/09/01 08:36:52;;;;;;;11.20;10.00;;;17.60;99.90;;;;;;4969095;28;20472;-55
2021/09/01 08:39:18;;;;;;;11.50;9.93;;;17.70;99.90;;;;;;4969694;28;20437;-54
2021/09/01 08:41:46;;;;;;;10.80;9.70;;;18.10;99.90;;;;;;4970348;28;20242;-51
2021/09/01 08:44:11;;;;;;;11.43;10.33;;;18.30;99.90;;;;;;4970066;28;21042;-48
2021/09/01 08:46:38;;;;;;;11.13;9.90;;;18.40;99.90;;;;;;4970779;28;20430;-54
2021/09/01 08:49:04;;;;;;;9.93;8.97;;;18.50;99.90;;;;;;4969220;28;20192;-51
2021/09/01 08:51:31;;;;;;;10.20;9.20;;;18.50;99.90;;;;;;4969509;28;20436;-53
2021/09/01 08:53:58;;;;;;;10.50;9.53;;;18.60;99.90;;;;;;4970546;28;20444;-53
2021/09/01 08:56:28;;;;;;;11.70;10.50;;;18.70;99.90;;;;;;4970448;28;20468;-51
2021/09/01 08:58:53;;;;;;;13.33;10.00;;;18.60;99.90;;;;;;4970150;28;20496;-52
2021/09/01 09:01:41;;;;;;;10.93;9.87;;;18.50;99.90;;;;;;4971975;28;20449;-54
2021/09/01 09:04:13;;;;;;;10.77;9.70;;;18.50;99.90;;;;;;4971566;28;20195;-52
2021/09/01 09:07:03;;;;;;;10.33;9.20;;;18.60;99.90;;;;;;4972809;28;20485;-52
2021/09/01 09:09:34;;;;;;;10.90;9.80;;;18.80;99.90;;;;;;4978100;28;20458;-51
2021/09/01 09:12:01;;;;;;;10.40;8.70;;;18.90;99.90;;;;;;4978567;28;20470;-50
2021/09/01 09:14:48;;;;;;;10.67;9.57;;;19.00;99.90;;;;;;4976932;28;20443;-54
2021/09/01 09:17:16;;;;;;;10.70;9.33;;;19.30;99.90;;;;;;4978752;28;20426;-53
2021/09/01 09:19:49;;;;;;;10.50;9.40;;;19.50;99.90;;;;;;4976996;28;20412;-52
2021/09/01 09:22:31;;;;;;;11.40;10.30;;;19.60;99.90;;;;;;4978524;28;20423;-56
2021/09/01 09:25:21;;;;;;;11.50;10.23;;;19.80;99.90;;;;;;4973932;28;20419;-54
2021/09/01 09:27:51;;;;;;;13.20;10.43;;;19.90;99.90;;;;;;4977847;28;20418;-52
2021/09/01 09:30:22;;;;;;;10.87;9.77;;;20.30;99.90;;;;;;4977910;28;20428;-55
2021/09/01 09:32:55;;;;;;;10.17;9.17;;;20.80;99.90;;;;;;4976937;28;20444;-54
2021/09/01 09:35:21;;;;;;;10.77;9.53;;;21.00;99.90;;;;;;4960739;28;20501;-56
2021/09/01 09:38:00;;;;;;;11.87;10.70;;;21.10;99.90;;;;;;4976342;28;20737;-55
2021/09/01 09:40:25;;;;;;;11.90;10.70;;;20.50;99.90;;;;;;4978030;28;20729;-54
2021/09/01 09:42:51;;;;;;;11.50;10.30;;;19.90;99.90;;;;;;4976827;28;20428;-55
2021/09/01 09:45:22;;;;;;;12.60;11.30;;;20.00;99.90;;;;;;4978281;28;20248;-50
2021/09/01 09:47:50;;;;;;;11.53;10.43;;;20.00;99.90;;;;;;4976525;28;20272;-56
2021/09/01 09:50:16;;;;;;;11.50;10.30;;;20.50;99.90;;;;;;4978000;28;20431;-48
2021/09/01 09:52:42;;;;;;;12.37;11.20;;;21.00;99.90;;;;;;4978050;28;20432;-52
2021/09/01 09:55:16;;;;;;;10.90;9.90;;;21.60;99.90;;;;;;4977916;28;20804;-53
2021/09/01 09:57:54;;;;;;;10.70;9.60;;;21.60;99.90;;;;;;4977055;28;20189;-53
2021/09/01 10:00:23;;;;;;;12.17;10.97;;;21.30;99.90;;;;;;4975643;28;20551;-53
2021/09/01 10:02:49;;;;;;;11.70;10.50;;;21.00;99.90;;;;;;4975540;28;20458;-55
2021/09/01 10:05:20;;;;;;;17.57;10.20;;;20.80;99.90;;;;;;4975284;28;20893;-55
2021/09/01 10:07:47;;;;;;;11.97;10.77;;;20.60;99.90;;;;;;4975932;28;20193;-55
2021/09/01 10:10:14;;;;;;;11.33;10.20;;;20.50;99.90;;;;;;4975916;28;20424;-54
2021/09/01 10:12:49;;;;;;;11.20;10.10;;;20.30;99.90;;;;;;4973191;28;20511;-53
2021/09/01 10:15:20;;;;;;;10.90;9.83;;;20.20;99.90;;;;;;4970624;28;20458;-55
2021/09/01 10:17:48;;;;;;;11.87;9.90;;;20.20;99.90;;;;;;4975365;28;20436;-50
2021/09/01 10:20:19;;;;;;;11.37;9.13;;;20.10;99.90;;;;;;4970752;28;20468;-50
2021/09/01 10:23:04;;;;;;;10.23;9.23;;;20.40;99.90;;;;;;4972557;28;20796;-53
2021/09/01 10:25:40;;;;;;;11.10;10.10;;;21.20;99.90;;;;;;4970513;28;20429;-54
2021/09/01 10:28:28;;;;;;;10.77;9.77;;;21.90;99.90;;;;;;4972426;28;20443;-56
2021/09/01 10:31:08;;;;;;;12.00;9.80;;;22.30;99.90;;;;;;4963388;28;20429;-55
2021/09/01 10:33:35;;;;;;;10.03;9.03;;;22.20;99.90;;;;;;4972637;28;20480;-54
2021/09/01 10:36:24;;;;;;;10.93;9.10;;;22.00;99.90;;;;;;4971941;28;20826;-48
2021/09/01 10:38:51;;;;;;;10.60;9.60;;;22.20;99.90;;;;;;4972555;28;21198;-52
2021/09/01 10:41:27;;;;;;;9.93;8.57;;;22.30;99.90;;;;;;4971993;28;20408;-50
2021/09/01 10:44:08;;;;;;;9.20;8.30;;;22.20;99.90;;;;;;4960047;28;20513;-53
2021/09/01 10:46:52;;;;;;;9.63;8.73;;;22.30;99.90;;;;;;4972537;28;20425;-51
2021/09/01 10:49:24;;;;;;;9.37;8.47;;;22.30;99.90;;;;;;4972804;28;20487;-55
2021/09/01 10:51:53;;;;;;;10.40;9.50;;;22.20;99.90;;;;;;4971732;28;20898;-55
2021/09/01 10:54:30;;;;;;;9.40;8.50;;;21.90;99.90;;;;;;4972277;28;20426;-52
2021/09/01 10:56:57;;;;;;;10.20;9.30;;;21.80;99.90;;;;;;4971842;28;20462;-51
2021/09/01 10:59:27;;;;;;;9.37;8.50;;;22.10;99.90;;;;;;4965471;28;20481;-52
2021/09/01 11:02:12;;;;;;;9.60;8.80;;;22.30;99.90;;;;;;4965681;28;20441;-54
2021/09/01 11:04:58;;;;;;;10.37;9.47;;;22.60;99.90;;;;;;4972256;28;20436;-53
2021/09/01 11:07:31;;;;;;;10.30;8.97;;;22.70;99.50;;;;;;4971517;28;20449;-51
2021/09/01 11:09:58;;;;;;;10.30;9.30;;;22.80;98.70;;;;;;4972354;28;20526;-55
2021/09/01 11:12:25;;;;;;;10.57;9.57;;;22.60;98.70;;;;;;4963570;28;20446;-49
2021/09/01 11:14:52;;;;;;;10.23;9.03;;;22.50;99.70;;;;;;4972100;28;20908;-55
2021/09/01 11:17:25;;;;;;;10.80;9.30;;;22.60;99.90;;;;;;4972155;28;20957;-54
2021/09/01 11:19:53;;;;;;;9.57;8.60;;;23.20;98.40;;;;;;4970573;28;20449;-52
2021/09/01 11:22:22;;;;;;;9.37;8.57;;;23.70;97.60;;;;;;4971769;28;20424;-53
2021/09/01 11:24:53;;;;;;;9.97;9.13;;;24.40;96.00;;;;;;4970334;28;20501;-54
2021/09/01 11:27:22;;;;;;;9.33;8.57;;;24.30;95.40;;;;;;4972047;28;20873;-56
2021/09/01 11:29:48;;;;;;;9.33;8.43;;;24.00;96.00;;;;;;4964724;28;20491;-54
2021/09/01 11:32:20;;;;;;;9.17;8.27;;;23.90;96.20;;;;;;4971348;28;20829;-53
2021/09/01 11:34:47;;;;;;;10.00;9.10;;;23.30;97.10;;;;;;4971353;28;20180;-50
2021/09/01 11:37:14;;;;;;;9.70;8.80;;;23.00;97.80;;;;;;4971873;28;20510;-53
2021/09/01 11:39:42;;;;;;;9.00;8.20;;;23.20;97.50;;;;;;4971315;28;20455;-52
2021/09/01 11:42:08;;;;;;;9.20;8.33;;;23.60;96.60;;;;;;4986547;28;20447;-54
2021/09/01 11:44:34;;;;;;;8.27;7.50;;;24.50;95.50;;;;;;4970400;28;20798;-53
2021/09/01 11:46:59;;;;;;;9.77;8.90;;;25.20;93.00;;;;;;4971447;28;20463;-52
2021/09/01 11:49:25;;;;;;;10.30;9.30;;;25.20;92.60;;;;;;4970905;28;20220;-55
2021/09/01 11:51:51;;;;;;;9.37;8.60;;;25.50;92.40;;;;;;4967336;28;20830;-53
2021/09/01 11:54:18;;;;;;;11.00;8.77;;;26.40;90.60;;;;;;4971031;28;20244;-52
2021/09/01 11:56:44;;;;;;;9.60;8.70;;;26.80;85.60;;;;;;4971463;28;20206;-54
2021/09/01 11:59:13;;;;;;;10.00;9.17;;;27.10;84.00;;;;;;4970572;28;20507;-52
2021/09/01 12:01:58;;;;;;;9.30;8.60;;;27.10;99.90;;;;;;4971485;28;20428;-54
2021/09/01 12:04:25;;;;;;;10.37;9.37;;;27.30;99.90;;;;;;4971224;28;20427;-51
2021/09/01 12:06:56;;;;;;;10.53;9.60;;;27.70;99.90;;;;;;4970367;28;20447;-55
2021/09/01 12:09:23;;;;;;;10.43;9.63;;;28.10;99.90;;;;;;4971125;28;20428;-53
2021/09/01 12:12:00;;;;;;;9.73;8.87;;;27.80;99.90;;;;;;4970687;28;21082;-53
2021/09/01 12:14:27;;;;;;;10.03;9.03;;;27.20;99.90;;;;;;4969243;28;20436;-50
2021/09/01 12:16:54;;;;;;;9.90;9.00;;;27.10;99.90;;;;;;4971062;28;21112;-55
2021/09/01 12:19:21;;;;;;;9.03;8.33;;;27.50;99.90;;;;;;4969711;28;20783;-51
2021/09/01 12:21:59;;;;;;;9.53;8.73;;;27.60;99.90;;;;;;4952398;28;20417;-51
2021/09/01 12:24:27;;;;;;;10.13;9.33;;;27.70;99.90;;;;;;4967223;28;20431;-55
2021/09/01 12:27:08;;;;;;;11.47;9.20;;;28.00;99.90;;;;;;4970716;28;20428;-54
2021/09/01 12:29:45;;;;;;;10.90;9.90;;;28.70;99.90;;;;;;4961701;28;20471;-51
2021/09/01 12:32:20;;;;;;;9.53;8.73;;;29.30;99.90;;;;;;4971106;28;20408;-54
2021/09/01 12:34:56;;;;;;;9.77;8.87;;;29.50;99.90;;;;;;4970998;28;20407;-54
2021/09/01 12:37:30;;;;;;;9.80;9.00;;;29.60;99.90;;;;;;4960600;28;20436;-53
2021/09/01 12:40:20;;;;;;;9.73;8.93;;;29.00;99.90;;;;;;4952027;28;20407;-53